createdAt,value
2022-08-08T00:01:08.024Z,16.40
2022-08-08T00:03:48.239Z,16.20
2022-08-08T00:06:34.169Z,16.30
2022-08-08T00:09:12.211Z,16.30
2022-08-08T00:12:07.118Z,16.30
2022-08-08T00:14:59.652Z,16.30
2022-08-08T00:17:58.614Z,16.30
2022-08-08T00:20:36.115Z,16.40
2022-08-08T00:23:08.504Z,16.30
2022-08-08T00:25:46.597Z,16.40
2022-08-08T00:28:34.424Z,16.30
2022-08-08T00:32:19.976Z,16.30
2022-08-08T00:34:20.304Z,16.30
2022-08-08T00:36:55.914Z,16.30
2022-08-08T00:41:11.789Z,16.20
2022-08-08T00:42:52.506Z,16.10
2022-08-08T00:45:57.702Z,16.10
2022-08-08T00:49:04.335Z,16.10
2022-08-08T00:52:05.378Z,16.00
2022-08-08T00:55:12.690Z,16.00
2022-08-08T00:58:33.663Z,15.90
2022-08-08T01:01:29.347Z,15.90
2022-08-08T01:04:42.036Z,15.80
2022-08-08T01:07:55.868Z,15.80
2022-08-08T01:10:57.814Z,15.70
2022-08-08T01:13:58.392Z,15.70
2022-08-08T01:17:34.865Z,15.60
2022-08-08T01:20:44.801Z,15.50
2022-08-08T01:24:13.831Z,15.30
2022-08-08T01:27:10.781Z,15.30
2022-08-08T01:30:26.643Z,15.30
2022-08-08T01:33:33.653Z,15.20
2022-08-08T01:36:59.630Z,15.20
2022-08-08T01:39:48.622Z,15.20
2022-08-08T01:42:36.359Z,15.20
2022-08-08T01:45:14.767Z,15.30
2022-08-08T01:48:23.298Z,15.30
2022-08-08T01:51:17.230Z,15.40
2022-08-08T01:55:17.676Z,15.30
2022-08-08T01:57:17.169Z,15.40
2022-08-08T02:00:06.268Z,15.40
2022-08-08T02:02:49.808Z,15.20
2022-08-08T02:05:33.972Z,15.00
2022-08-08T02:08:34.072Z,15.10
2022-08-08T02:11:23.131Z,14.90
2022-08-08T02:13:57.592Z,14.80
2022-08-08T02:16:30.427Z,14.80
2022-08-08T02:19:26.751Z,14.80
2022-08-08T02:22:20.448Z,14.90
2022-08-08T02:25:00.977Z,14.90
2022-08-08T02:27:43.848Z,14.90
2022-08-08T02:30:21.309Z,14.90
2022-08-08T02:33:41.593Z,14.90
2022-08-08T02:36:38.928Z,14.70
2022-08-08T02:39:41.955Z,14.70
2022-08-08T02:43:07.427Z,14.70
2022-08-08T02:46:11.664Z,14.30
2022-08-08T02:49:27.707Z,14.30
2022-08-08T02:52:38.743Z,14.30
2022-08-08T02:55:59.907Z,14.20
2022-08-08T02:59:25.757Z,14.20
2022-08-08T03:02:30.879Z,14.20
2022-08-08T03:05:44.812Z,14.10
2022-08-08T03:08:51.677Z,14.10
2022-08-08T03:12:05.751Z,14.20
2022-08-08T03:15:58.629Z,14.20
2022-08-08T03:18:04.538Z,14.10
2022-08-08T03:20:46.774Z,14.00
2022-08-08T03:23:17.675Z,14.00
2022-08-08T03:25:46.954Z,13.90
2022-08-08T03:28:22.042Z,13.90
2022-08-08T03:31:22.215Z,14.00
2022-08-08T03:33:56.042Z,13.80
2022-08-08T03:36:30.624Z,13.60
2022-08-08T03:39:15.321Z,13.50
2022-08-08T03:42:13.061Z,13.60
2022-08-08T03:44:35.287Z,13.50
2022-08-08T03:47:14.049Z,13.50
2022-08-08T03:50:00.746Z,13.60
2022-08-08T03:52:34.060Z,13.60
2022-08-08T03:55:55.307Z,13.50
2022-08-08T03:58:31.400Z,13.40
2022-08-08T04:01:02.138Z,13.40
2022-08-08T04:03:59.624Z,13.50
2022-08-08T04:06:29.734Z,13.40
2022-08-08T04:08:58.546Z,13.40
2022-08-08T04:11:58.865Z,13.40
2022-08-08T04:14:33.863Z,13.40
2022-08-08T04:17:04.181Z,13.40
2022-08-08T04:19:36.648Z,13.30
2022-08-08T04:22:05.326Z,13.30
2022-08-08T04:24:34.858Z,13.30
2022-08-08T04:27:07.390Z,13.30
2022-08-08T04:29:38.783Z,13.30
2022-08-08T04:32:14.388Z,13.10
2022-08-08T04:34:59.231Z,13.20
2022-08-08T04:37:32.232Z,13.20
2022-08-08T04:40:06.467Z,13.10
2022-08-08T04:42:37.370Z,13.20
2022-08-08T04:45:15.506Z,13.30
2022-08-08T04:47:46.496Z,13.20
2022-08-08T04:50:23.882Z,13.40
2022-08-08T04:52:58.893Z,13.50
2022-08-08T04:55:47.653Z,13.30
2022-08-08T04:58:18.982Z,13.40
2022-08-08T05:00:48.421Z,13.40
2022-08-08T05:04:08.011Z,13.50
2022-08-08T05:06:12.982Z,13.50
2022-08-08T05:08:43.050Z,13.50
2022-08-08T05:11:18.697Z,13.60
2022-08-08T05:13:57.486Z,13.60
2022-08-08T05:16:51.209Z,13.70
2022-08-08T05:20:10.146Z,13.90
2022-08-08T05:22:06.949Z,13.90
2022-08-08T05:24:37.303Z,14.00
2022-08-08T05:27:06.055Z,14.00
2022-08-08T05:29:36.923Z,14.00
2022-08-08T05:32:07.361Z,14.10
2022-08-08T05:34:42.046Z,14.30
2022-08-08T05:37:18.603Z,14.40
2022-08-08T05:39:53.227Z,14.40
2022-08-08T05:42:25.833Z,14.50
2022-08-08T05:45:00.561Z,14.60
2022-08-08T05:47:29.880Z,14.70
2022-08-08T05:50:11.474Z,14.50
2022-08-08T05:52:41.152Z,14.70
2022-08-08T05:55:10.879Z,14.80
2022-08-08T05:58:04.579Z,14.90
2022-08-08T06:00:34.558Z,14.90
2022-08-08T06:03:17.559Z,14.90
2022-08-08T06:05:56.591Z,15.00
2022-08-08T06:08:34.522Z,15.00
2022-08-08T06:11:04.441Z,15.00
2022-08-08T06:13:36.086Z,15.10
2022-08-08T06:16:16.593Z,15.10
2022-08-08T06:18:50.660Z,15.20
2022-08-08T06:21:33.337Z,15.20
2022-08-08T06:24:13.759Z,15.20
2022-08-08T06:26:57.102Z,15.20
2022-08-08T06:29:56.425Z,15.20
2022-08-08T06:32:25.645Z,15.30
2022-08-08T06:36:00.532Z,15.40
2022-08-08T06:37:51.031Z,15.50
2022-08-08T06:40:26.837Z,15.80
2022-08-08T06:43:00.687Z,15.90
2022-08-08T06:45:33.701Z,16.10
2022-08-08T06:48:04.475Z,16.20
2022-08-08T06:50:38.566Z,16.30
2022-08-08T06:53:09.689Z,16.40
2022-08-08T06:55:43.327Z,16.50
2022-08-08T06:58:11.691Z,16.60
2022-08-08T07:00:41.258Z,16.80
2022-08-08T07:03:52.004Z,17.00
2022-08-08T07:06:26.998Z,17.40
2022-08-08T07:08:59.123Z,17.70
2022-08-08T07:11:46.115Z,18.00
2022-08-08T07:14:24.184Z,18.30
2022-08-08T07:17:02.819Z,18.40
2022-08-08T07:19:44.785Z,18.60
2022-08-08T07:22:23.135Z,18.70
2022-08-08T07:24:55.251Z,18.70
2022-08-08T07:27:27.708Z,18.90
2022-08-08T07:30:16.833Z,19.30
2022-08-08T07:32:50.209Z,19.30
2022-08-08T07:35:20.417Z,19.10
2022-08-08T07:38:04.235Z,19.20
2022-08-08T07:40:40.105Z,19.30
2022-08-08T07:43:10.045Z,19.30
2022-08-08T07:46:05.187Z,19.20
2022-08-08T07:48:29.910Z,19.20
2022-08-08T07:51:02.549Z,19.40
2022-08-08T07:54:01.181Z,19.40
2022-08-08T07:56:36.190Z,19.50
2022-08-08T07:59:11.178Z,19.60
2022-08-08T08:02:35.253Z,19.70
2022-08-08T08:04:46.707Z,19.80
2022-08-08T08:07:26.096Z,19.90
2022-08-08T08:10:03.645Z,20.20
2022-08-08T08:12:41.393Z,20.10
2022-08-08T08:15:16.814Z,20.00
2022-08-08T08:17:55.327Z,20.00
2022-08-08T08:20:30.091Z,20.20
2022-08-08T08:23:00.055Z,20.00
2022-08-08T08:25:40.972Z,20.00
2022-08-08T08:28:21.106Z,19.80
2022-08-08T08:30:53.601Z,19.60
2022-08-08T08:33:23.046Z,19.50
2022-08-08T08:36:18.880Z,19.40
2022-08-08T08:38:49.416Z,19.40
2022-08-08T08:41:20.319Z,19.30
2022-08-08T08:43:52.265Z,19.40
2022-08-08T08:46:34.723Z,19.40
2022-08-08T08:49:07.322Z,19.40
2022-08-08T08:51:51.535Z,19.40
2022-08-08T08:54:25.346Z,19.50
2022-08-08T08:56:54.776Z,19.80
2022-08-08T08:59:58.644Z,20.20
2022-08-08T09:02:19.899Z,20.40
2022-08-08T09:04:50.262Z,20.40
2022-08-08T09:07:39.166Z,20.20
2022-08-08T09:10:16.978Z,20.40
2022-08-08T09:12:47.480Z,20.70
2022-08-08T09:15:37.132Z,20.70
2022-08-08T09:18:06.453Z,20.50
2022-08-08T09:22:02.132Z,20.20
2022-08-08T09:23:33.674Z,20.10
2022-08-08T09:26:32.556Z,20.10
2022-08-08T09:29:09.443Z,19.90
2022-08-08T09:31:56.664Z,20.10
2022-08-08T09:34:31.735Z,20.00
2022-08-08T09:37:46.371Z,19.90
2022-08-08T09:40:01.481Z,20.00
2022-08-08T09:42:43.751Z,20.40
2022-08-08T09:45:15.500Z,20.70
2022-08-08T09:48:04.222Z,20.80
2022-08-08T09:50:34.728Z,21.20
2022-08-08T09:53:14.373Z,21.30
2022-08-08T09:56:04.683Z,21.30
2022-08-08T09:58:40.610Z,21.50
2022-08-08T10:01:14.526Z,21.50
2022-08-08T10:04:02.242Z,21.30
2022-08-08T10:06:35.848Z,21.50
2022-08-08T10:09:04.165Z,21.60
2022-08-08T10:12:27.249Z,21.60
2022-08-08T10:14:38.428Z,21.80
2022-08-08T10:17:57.178Z,22.10
2022-08-08T10:20:00.736Z,22.10
2022-08-08T10:22:32.233Z,22.00
2022-08-08T10:25:04.953Z,22.00
2022-08-08T10:27:42.583Z,22.20
2022-08-08T10:30:16.300Z,22.50
2022-08-08T10:33:02.626Z,22.40
2022-08-08T10:36:08.801Z,22.20
2022-08-08T10:38:21.466Z,22.40
2022-08-08T10:40:53.699Z,22.20
2022-08-08T10:43:23.491Z,22.50
2022-08-08T10:45:57.269Z,22.50
2022-08-08T10:48:38.895Z,22.60
2022-08-08T10:51:23.994Z,22.70
2022-08-08T10:53:56.572Z,22.70
2022-08-08T10:56:34.699Z,22.40
2022-08-08T10:59:07.749Z,22.00
2022-08-08T11:01:39.742Z,21.70
2022-08-08T11:04:10.545Z,21.90
2022-08-08T11:06:42.035Z,22.20
2022-08-08T11:09:21.581Z,22.20
2022-08-08T11:12:06.408Z,22.50
2022-08-08T11:14:50.575Z,22.90
2022-08-08T11:17:58.044Z,22.70
2022-08-08T11:20:13.893Z,22.70
2022-08-08T11:22:42.598Z,22.80
2022-08-08T11:25:16.438Z,22.80
2022-08-08T11:27:47.195Z,22.40
2022-08-08T11:30:20.357Z,22.50
2022-08-08T11:32:56.645Z,22.50
2022-08-08T11:35:42.346Z,22.50
2022-08-08T11:38:38.624Z,22.50
2022-08-08T11:41:03.027Z,22.80
2022-08-08T11:43:39.335Z,22.80
2022-08-08T11:46:14.183Z,22.40
2022-08-08T11:48:48.768Z,22.20
2022-08-08T11:51:29.490Z,22.20
2022-08-08T11:54:26.742Z,22.50
2022-08-08T11:56:56.135Z,22.60
2022-08-08T11:59:57.761Z,23.00
2022-08-08T12:02:32.214Z,23.10
2022-08-08T12:05:07.329Z,23.00
2022-08-08T12:07:51.369Z,23.20
2022-08-08T12:10:22.340Z,23.10
2022-08-08T12:12:54.702Z,23.20
2022-08-08T12:15:29.254Z,23.00
2022-08-08T12:17:57.798Z,22.70
2022-08-08T12:20:39.736Z,23.10
2022-08-08T12:23:13.723Z,23.40
2022-08-08T12:25:44.957Z,23.40
2022-08-08T12:28:23.483Z,23.50
2022-08-08T12:30:51.640Z,23.30
2022-08-08T12:33:21.100Z,23.30
2022-08-08T12:35:52.422Z,23.40
2022-08-08T12:38:30.293Z,23.60
2022-08-08T12:41:16.608Z,23.60
2022-08-08T12:44:00.389Z,23.50
2022-08-08T12:46:29.477Z,23.90
2022-08-08T12:49:25.587Z,23.90
2022-08-08T12:51:58.645Z,24.10
2022-08-08T12:54:35.694Z,24.20
2022-08-08T12:57:17.254Z,24.40
2022-08-08T13:00:06.248Z,24.60
2022-08-08T13:02:51.178Z,24.00
2022-08-08T13:05:26.617Z,24.20
2022-08-08T13:08:17.856Z,24.60
2022-08-08T13:10:57.251Z,24.10
2022-08-08T13:13:35.293Z,24.20
2022-08-08T13:16:19.001Z,24.40
2022-08-08T13:18:55.932Z,24.40
2022-08-08T13:21:48.717Z,24.00
2022-08-08T13:24:38.585Z,23.70
2022-08-08T13:27:11.911Z,23.60
2022-08-08T13:29:50.659Z,23.90
2022-08-08T13:32:20.892Z,24.10
2022-08-08T13:34:54.302Z,24.20
2022-08-08T13:37:27.965Z,24.10
2022-08-08T13:40:17.752Z,23.80
2022-08-08T13:42:55.287Z,23.90
2022-08-08T13:45:24.294Z,24.00
2022-08-08T13:47:58.443Z,24.20
2022-08-08T13:50:39.819Z,24.50
2022-08-08T13:53:26.115Z,24.10
2022-08-08T13:56:05.202Z,24.20
2022-08-08T13:58:34.536Z,24.20
2022-08-08T14:01:13.782Z,24.40
2022-08-08T14:03:55.092Z,24.50
2022-08-08T14:06:33.081Z,24.40
2022-08-08T14:09:24.990Z,24.10
2022-08-08T14:11:54.537Z,24.20
2022-08-08T14:14:25.471Z,24.70
2022-08-08T14:16:57.252Z,24.90
2022-08-08T14:19:57.839Z,24.70
2022-08-08T14:22:23.804Z,24.40
2022-08-08T14:24:54.995Z,24.60
2022-08-08T14:27:28.883Z,24.60
2022-08-08T14:30:08.279Z,24.00
2022-08-08T14:32:53.197Z,24.10
2022-08-08T14:35:35.183Z,24.20
2022-08-08T14:38:31.572Z,24.10
2022-08-08T14:40:59.181Z,24.20
2022-08-08T14:44:02.786Z,24.20
2022-08-08T14:46:19.182Z,23.80
2022-08-08T14:49:02.536Z,24.00
2022-08-08T14:51:52.091Z,24.30
2022-08-08T14:54:28.842Z,24.20
2022-08-08T14:56:57.973Z,24.40
2022-08-08T14:59:43.525Z,24.60
2022-08-08T15:02:15.340Z,24.70
2022-08-08T15:04:45.624Z,24.70
2022-08-08T15:07:19.000Z,24.90
2022-08-08T15:09:51.394Z,24.50
2022-08-08T15:12:27.275Z,24.30
2022-08-08T15:14:57.900Z,24.10
2022-08-08T15:17:26.023Z,24.20
2022-08-08T15:19:54.788Z,24.60
2022-08-08T15:22:24.108Z,24.60
2022-08-08T15:24:52.291Z,23.90
2022-08-08T15:28:04.345Z,23.60
2022-08-08T15:30:14.203Z,23.20
2022-08-08T15:32:43.280Z,23.20
2022-08-08T15:35:11.748Z,23.10
2022-08-08T15:37:44.362Z,23.00
2022-08-08T15:40:15.443Z,23.00
2022-08-08T15:42:47.517Z,22.90
2022-08-08T15:45:22.800Z,22.70
2022-08-08T15:48:04.326Z,22.90
2022-08-08T15:51:06.467Z,22.90
2022-08-08T15:53:49.592Z,23.00
2022-08-08T15:56:19.982Z,23.10
2022-08-08T15:58:50.293Z,23.10
2022-08-08T16:01:21.054Z,23.00
2022-08-08T16:03:51.880Z,22.80
2022-08-08T16:06:28.224Z,22.60
2022-08-08T16:13:00.957Z,22.60
2022-08-08T16:13:12.124Z,22.40
2022-08-08T16:14:36.005Z,22.30
2022-08-08T16:17:06.155Z,22.20
2022-08-08T16:19:57.275Z,22.00
2022-08-08T16:22:30.609Z,21.90
2022-08-08T16:24:59.170Z,21.90
2022-08-08T16:27:35.312Z,21.80
2022-08-08T16:30:13.131Z,21.80
2022-08-08T16:32:43.770Z,21.80
2022-08-08T16:35:18.913Z,21.70
2022-08-08T16:37:51.187Z,21.60
2022-08-08T16:40:20.006Z,21.60
2022-08-08T16:42:51.973Z,21.70
2022-08-08T16:46:36.690Z,21.70
2022-08-08T16:48:13.294Z,21.50
2022-08-08T16:50:41.662Z,21.40
2022-08-08T16:55:03.841Z,21.30
2022-08-08T16:56:00.305Z,21.20
2022-08-08T16:58:32.467Z,21.00
2022-08-08T17:01:05.569Z,20.80
2022-08-08T17:04:00.400Z,20.90
2022-08-08T17:06:37.411Z,20.90
2022-08-08T17:09:15.573Z,20.90
2022-08-08T17:11:49.171Z,21.10
2022-08-08T17:14:33.027Z,21.20
2022-08-08T17:17:03.272Z,21.30
2022-08-08T17:19:37.462Z,21.20
2022-08-08T17:22:10.365Z,21.10
2022-08-08T17:24:38.565Z,21.10
2022-08-08T17:27:07.484Z,21.10
2022-08-08T17:29:43.737Z,21.10
2022-08-08T17:32:28.961Z,21.10
2022-08-08T17:35:52.663Z,21.00
2022-08-08T17:37:53.342Z,21.10
2022-08-08T17:40:21.886Z,21.00
2022-08-08T17:42:50.632Z,20.80
2022-08-08T17:45:23.660Z,20.80
2022-08-08T17:47:54.190Z,20.80
2022-08-08T17:50:25.056Z,20.60
2022-08-08T17:52:53.727Z,20.60
2022-08-08T17:56:08.174Z,20.50
2022-08-08T17:58:11.720Z,20.50
2022-08-08T18:00:41.384Z,20.30
2022-08-08T18:03:13.555Z,20.40
2022-08-08T18:05:44.201Z,20.20
2022-08-08T18:08:37.678Z,20.20
2022-08-08T18:11:11.551Z,20.10
2022-08-08T18:13:43.057Z,20.00
2022-08-08T18:16:12.881Z,19.90
2022-08-08T18:18:52.813Z,19.80
2022-08-08T18:21:58.932Z,19.60
2022-08-08T18:24:18.931Z,19.50
2022-08-08T18:26:54.985Z,19.50
2022-08-08T18:29:29.917Z,19.40
2022-08-08T18:32:03.704Z,19.40
2022-08-08T18:34:33.213Z,19.30
2022-08-08T18:37:08.161Z,19.20
2022-08-08T18:39:42.073Z,19.10
2022-08-08T18:42:16.127Z,19.00
2022-08-08T18:44:55.916Z,18.90
2022-08-08T18:47:27.107Z,18.70
2022-08-08T18:49:58.413Z,18.70
2022-08-08T18:52:30.103Z,18.70
2022-08-08T18:55:09.836Z,18.70
2022-08-08T18:57:42.187Z,18.60
2022-08-08T19:00:15.798Z,18.50
2022-08-08T19:02:48.538Z,18.40
2022-08-08T19:05:24.442Z,18.30
2022-08-08T19:08:02.306Z,18.20
2022-08-08T19:10:31.411Z,18.10
2022-08-08T19:13:00.204Z,18.00
2022-08-08T19:15:34.236Z,17.90
2022-08-08T19:18:32.921Z,17.80
2022-08-08T19:20:54.299Z,17.70
2022-08-08T19:23:23.851Z,17.60
2022-08-08T19:26:19.856Z,17.50
2022-08-08T19:28:42.206Z,17.40
2022-08-08T19:31:13.180Z,17.20
2022-08-08T19:34:04.153Z,17.00
2022-08-08T19:36:34.899Z,16.90
2022-08-08T19:39:04.462Z,16.80
2022-08-08T19:41:37.587Z,16.70
2022-08-08T19:44:12.920Z,16.80
2022-08-08T19:46:41.525Z,16.80
2022-08-08T19:49:10.079Z,16.80
2022-08-08T19:51:41.450Z,16.60
2022-08-08T19:54:13.411Z,16.40
2022-08-08T19:56:48.765Z,16.30
2022-08-08T19:59:18.855Z,16.20
2022-08-08T20:02:02.638Z,16.20
2022-08-08T20:04:33.215Z,15.90
2022-08-08T20:07:03.529Z,15.90
2022-08-08T20:09:44.368Z,15.80
2022-08-08T20:12:14.085Z,15.60
2022-08-08T20:14:51.791Z,15.50
2022-08-08T20:17:26.846Z,15.40
2022-08-08T20:19:56.232Z,15.30
2022-08-08T20:22:31.005Z,15.30
2022-08-08T20:25:02.559Z,15.20
2022-08-08T20:27:43.880Z,15.40
2022-08-08T20:30:52.878Z,15.50
2022-08-08T20:33:18.485Z,15.30
2022-08-08T20:35:58.654Z,15.10
2022-08-08T20:38:32.847Z,15.00
2022-08-08T20:41:12.127Z,14.80
2022-08-08T20:43:48.219Z,14.70
2022-08-08T20:46:20.592Z,14.60
2022-08-08T20:48:51.125Z,14.20
2022-08-08T20:51:20.927Z,14.10
2022-08-08T20:54:00.009Z,14.20
2022-08-08T20:56:36.076Z,14.10
2022-08-08T20:59:21.289Z,13.80
2022-08-08T21:02:06.214Z,13.80
2022-08-08T21:04:36.932Z,13.80
2022-08-08T21:07:13.255Z,13.60
2022-08-08T21:10:01.444Z,13.60
2022-08-08T21:12:35.933Z,13.60
2022-08-08T21:15:07.191Z,13.60
2022-08-08T21:17:38.325Z,13.60
2022-08-08T21:20:09.129Z,13.60
2022-08-08T21:22:37.917Z,13.50
2022-08-08T21:25:10.699Z,13.50
2022-08-08T21:28:09.625Z,13.50
2022-08-08T21:30:31.340Z,13.50
2022-08-08T21:32:59.505Z,13.20
2022-08-08T21:36:16.673Z,13.10
2022-08-08T21:38:18.061Z,13.10
2022-08-08T21:40:56.290Z,13.10
2022-08-08T21:43:30.990Z,13.00
2022-08-08T21:48:04.176Z,13.00
2022-08-08T21:48:52.113Z,13.00
2022-08-08T21:54:18.531Z,13.00
2022-08-08T21:54:36.673Z,13.00
2022-08-08T21:56:59.607Z,13.10
2022-08-08T22:00:02.987Z,13.20
2022-08-08T22:02:23.083Z,13.10
2022-08-08T22:04:52.827Z,13.10
2022-08-08T22:07:20.979Z,13.00
2022-08-08T22:10:03.261Z,13.00
2022-08-08T22:12:38.749Z,13.00
2022-08-08T22:15:09.894Z,12.90
2022-08-08T22:17:41.545Z,12.90
2022-08-08T22:20:18.750Z,13.00
2022-08-08T22:22:52.457Z,13.10
2022-08-08T22:25:25.259Z,13.10
2022-08-08T22:28:03.639Z,12.90
2022-08-08T22:30:34.837Z,12.80
2022-08-08T22:33:03.071Z,12.80
2022-08-08T22:36:05.177Z,12.70
2022-08-08T22:38:48.284Z,12.70
2022-08-08T22:41:21.511Z,12.60
2022-08-08T22:44:03.003Z,12.40
2022-08-08T22:46:38.714Z,12.40
2022-08-08T22:49:09.433Z,12.30
2022-08-08T22:51:42.575Z,12.30
2022-08-08T22:54:31.045Z,12.40
2022-08-08T22:57:11.741Z,12.30
2022-08-08T22:59:48.450Z,12.30
2022-08-08T23:02:29.635Z,12.00
2022-08-08T23:05:04.677Z,12.00
2022-08-08T23:07:51.251Z,12.00
2022-08-08T23:10:25.179Z,11.90
2022-08-08T23:12:53.712Z,11.90
2022-08-08T23:16:39.538Z,11.90
2022-08-08T23:18:12.372Z,11.80
2022-08-08T23:20:43.366Z,11.80
2022-08-08T23:23:12.955Z,11.80
2022-08-08T23:25:47.970Z,11.70
2022-08-08T23:28:18.632Z,11.70
2022-08-08T23:30:47.834Z,11.70
2022-08-08T23:33:35.802Z,11.70
2022-08-08T23:36:08.913Z,11.80
2022-08-08T23:38:44.144Z,11.70
2022-08-08T23:41:24.421Z,11.60
2022-08-08T23:43:56.404Z,11.40
2022-08-08T23:49:05.810Z,11.40
2022-08-08T23:49:18.876Z,11.30
2022-08-08T23:52:04.665Z,11.30
2022-08-08T23:54:43.548Z,11.20
2022-08-08T23:57:26.582Z,11.20
